CheckWX is a tool to help pilots better visualize weather data.  It is not intended as a substitute for an official pre-flight weather briefing.

11:22:11 UTC

KPJC METAR
Zelienople Municipal Airport
Zelienople, Pennsylvania, USA
Current

1 hour ago

KPJC 060955Z AUTO 00000KT 3SM BR CLR M01/M01 A3014 RMK AO2
Observed
Apr-6 @ 09:55 UTC
Visibility
Flight Rules
MVFR
Conditions
Mist
Cloud Levels
  • Clear skies
Temperature
-1°C / 30°F
Dewpoint
-1°C / 30°F
Humidity
100%
Altimeter
30.14" Hg
Pressure
1020.62 hPa
Previous

2 hours ago

KPJC 060936Z AUTO 00000KT 7SM CLR M01/M01 A3014 RMK AO2
Observed
Apr-6 @ 09:36 UTC
Visibility
Flight Rules
VFR
Cloud Levels
  • Clear skies
Temperature
-1°C / 30°F
Dewpoint
-1°C / 30°F
Humidity
100%
Altimeter
30.14" Hg
Pressure
1020.62 hPa
Previous

2 hours ago

KPJC 060915Z AUTO 00000KT 7SM CLR 00/00 A3013 RMK AO2
Observed
Apr-6 @ 09:15 UTC
Visibility
Flight Rules
VFR
Cloud Levels
  • Clear skies
Temperature
C / 32°F
Dewpoint
C / 32°F
Humidity
100%
Altimeter
30.13" Hg
Pressure
1020.32 hPa